sensor_id;sensor_type;location;lat;lon;timestamp;pressure;altitude;pressure_sealevel;temperature;humidity
48089;BME280;33867;50.314;7.802;2022-08-07T00:00:30;101281.16;;;13.62;nan
48089;BME280;33867;50.314;7.802;2022-08-07T00:03:49;101283.97;;;13.61;nan
48089;BME280;33867;50.314;7.802;2022-08-07T00:07:09;101276.28;;;13.56;nan
48089;BME280;33867;50.314;7.802;2022-08-07T00:10:29;101275.88;;;13.51;nan
48089;BME280;33867;50.314;7.802;2022-08-07T00:13:48;101274.41;;;13.47;nan
48089;BME280;33867;50.314;7.802;2022-08-07T00:17:07;101274.28;;;13.39;nan
48089;BME280;33867;50.314;7.802;2022-08-07T00:20:26;101275.28;;;13.38;nan
48089;BME280;33867;50.314;7.802;2022-08-07T00:23:45;101272.69;;;13.36;nan
48089;BME280;33867;50.314;7.802;2022-08-07T00:27:05;101263.72;;;13.26;nan
48089;BME280;33867;50.314;7.802;2022-08-07T00:30:24;101268.25;;;13.26;nan
48089;BME280;33867;50.314;7.802;2022-08-07T00:33:43;101261.41;;;13.22;nan
48089;BME280;33867;50.314;7.802;2022-08-07T00:37:03;101258.94;;;13.09;nan
48089;BME280;33867;50.314;7.802;2022-08-07T00:40:22;101263.34;;;13.10;nan
48089;BME280;33867;50.314;7.802;2022-08-07T00:43:42;101260.63;;;13.10;nan
48089;BME280;33867;50.314;7.802;2022-08-07T00:47:03;101261.72;;;12.98;nan
48089;BME280;33867;50.314;7.802;2022-08-07T00:50:22;101263.88;;;12.94;nan
48089;BME280;33867;50.314;7.802;2022-08-07T00:53:41;101256.28;;;12.88;nan
48089;BME280;33867;50.314;7.802;2022-08-07T00:57:01;101257.84;;;12.81;nan
48089;BME280;33867;50.314;7.802;2022-08-07T01:00:20;101241.88;;;12.78;nan
48089;BME280;33867;50.314;7.802;2022-08-07T01:03:39;101239.03;;;12.70;nan
48089;BME280;33867;50.314;7.802;2022-08-07T01:06:59;101245.56;;;12.67;nan
48089;BME280;33867;50.314;7.802;2022-08-07T01:10:18;101243.72;;;12.68;nan
48089;BME280;33867;50.314;7.802;2022-08-07T01:13:39;101231.81;;;12.49;nan
48089;BME280;33867;50.314;7.802;2022-08-07T01:16:59;101234.94;;;12.54;nan
48089;BME280;33867;50.314;7.802;2022-08-07T01:20:28;101241.19;;;12.45;nan
48089;BME280;33867;50.314;7.802;2022-08-07T01:23:50;101234.19;;;12.43;nan
48089;BME280;33867;50.314;7.802;2022-08-07T01:27:10;101238.00;;;12.40;nan
48089;BME280;33867;50.314;7.802;2022-08-07T01:30:30;101235.16;;;12.32;nan
48089;BME280;33867;50.314;7.802;2022-08-07T01:33:50;101228.75;;;12.33;nan
48089;BME280;33867;50.314;7.802;2022-08-07T01:37:10;101231.97;;;12.27;nan
48089;BME280;33867;50.314;7.802;2022-08-07T01:40:32;101222.88;;;12.28;nan
48089;BME280;33867;50.314;7.802;2022-08-07T01:43:53;101218.28;;;12.19;nan
48089;BME280;33867;50.314;7.802;2022-08-07T01:47:13;101222.78;;;12.09;nan
48089;BME280;33867;50.314;7.802;2022-08-07T01:50:37;101222.50;;;12.12;nan
48089;BME280;33867;50.314;7.802;2022-08-07T01:54:00;101237.50;;;12.05;nan
48089;BME280;33867;50.314;7.802;2022-08-07T01:57:26;101227.56;;;12.05;nan
48089;BME280;33867;50.314;7.802;2022-08-07T02:00:54;101228.09;;;11.99;nan
48089;BME280;33867;50.314;7.802;2022-08-07T02:04:24;101236.84;;;11.91;nan
48089;BME280;33867;50.314;7.802;2022-08-07T02:07:49;101243.88;;;11.83;nan
48089;BME280;33867;50.314;7.802;2022-08-07T02:11:14;101237.63;;;11.71;nan
48089;BME280;33867;50.314;7.802;2022-08-07T02:14:35;101234.22;;;11.69;nan
48089;BME280;33867;50.314;7.802;2022-08-07T02:17:56;101231.03;;;11.75;nan
48089;BME280;33867;50.314;7.802;2022-08-07T02:21:17;101234.69;;;11.74;nan
48089;BME280;33867;50.314;7.802;2022-08-07T02:24:38;101234.94;;;11.71;nan
48089;BME280;33867;50.314;7.802;2022-08-07T02:27:59;101229.34;;;11.63;nan
48089;BME280;33867;50.314;7.802;2022-08-07T02:31:20;101227.16;;;11.57;nan
48089;BME280;33867;50.314;7.802;2022-08-07T02:34:41;101236.78;;;11.50;nan
48089;BME280;33867;50.314;7.802;2022-08-07T02:38:03;101230.75;;;11.46;nan
48089;BME280;33867;50.314;7.802;2022-08-07T02:41:26;101229.66;;;11.49;nan
48089;BME280;33867;50.314;7.802;2022-08-07T02:44:48;101231.38;;;11.50;nan
48089;BME280;33867;50.314;7.802;2022-08-07T02:48:12;101233.44;;;11.46;nan
48089;BME280;33867;50.314;7.802;2022-08-07T02:51:32;101237.78;;;11.37;nan
48089;BME280;33867;50.314;7.802;2022-08-07T02:55:01;101227.22;;;11.34;nan
48089;BME280;33867;50.314;7.802;2022-08-07T02:58:22;101235.13;;;11.26;nan
48089;BME280;33867;50.314;7.802;2022-08-07T03:01:43;101241.00;;;11.20;nan
48089;BME280;33867;50.314;7.802;2022-08-07T03:05:05;101238.31;;;11.20;nan
48089;BME280;33867;50.314;7.802;2022-08-07T03:08:25;101242.94;;;11.29;nan
48089;BME280;33867;50.314;7.802;2022-08-07T03:11:46;101230.81;;;11.24;nan
48089;BME280;33867;50.314;7.802;2022-08-07T03:15:06;101232.94;;;11.09;nan
48089;BME280;33867;50.314;7.802;2022-08-07T03:18:26;101227.22;;;11.02;nan
48089;BME280;33867;50.314;7.802;2022-08-07T03:21:48;101222.31;;;10.96;nan
48089;BME280;33867;50.314;7.802;2022-08-07T03:25:08;101222.69;;;11.03;nan
48089;BME280;33867;50.314;7.802;2022-08-07T03:28:34;101225.00;;;10.96;nan
48089;BME280;33867;50.314;7.802;2022-08-07T03:31:57;101227.34;;;10.90;nan
48089;BME280;33867;50.314;7.802;2022-08-07T03:35:21;101224.16;;;10.84;nan
48089;BME280;33867;50.314;7.802;2022-08-07T03:38:42;101219.03;;;10.81;nan
48089;BME280;33867;50.314;7.802;2022-08-07T03:42:13;101218.19;;;10.81;nan
48089;BME280;33867;50.314;7.802;2022-08-07T03:45:33;101215.69;;;10.89;nan
48089;BME280;33867;50.314;7.802;2022-08-07T03:48:58;101212.53;;;10.84;nan
48089;BME280;33867;50.314;7.802;2022-08-07T03:52:21;101214.88;;;10.77;nan
48089;BME280;33867;50.314;7.802;2022-08-07T03:55:47;101218.66;;;10.75;nan
48089;BME280;33867;50.314;7.802;2022-08-07T03:59:11;101214.03;;;10.66;nan
48089;BME280;33867;50.314;7.802;2022-08-07T04:02:32;101215.97;;;10.64;nan
48089;BME280;33867;50.314;7.802;2022-08-07T04:05:51;101215.09;;;10.63;nan
48089;BME280;33867;50.314;7.802;2022-08-07T04:09:15;101215.75;;;10.56;nan
48089;BME280;33867;50.314;7.802;2022-08-07T04:12:36;101223.19;;;10.52;nan
48089;BME280;33867;50.314;7.802;2022-08-07T04:15:55;101222.09;;;10.54;nan
48089;BME280;33867;50.314;7.802;2022-08-07T04:19:16;101220.38;;;10.53;nan
48089;BME280;33867;50.314;7.802;2022-08-07T04:22:42;101215.97;;;10.64;nan
48089;BME280;33867;50.314;7.802;2022-08-07T04:26:06;101223.81;;;10.56;nan
48089;BME280;33867;50.314;7.802;2022-08-07T04:29:25;101229.34;;;10.54;nan
48089;BME280;33867;50.314;7.802;2022-08-07T04:32:44;101230.31;;;10.42;nan
48089;BME280;33867;50.314;7.802;2022-08-07T04:36:06;101236.78;;;10.50;nan
48089;BME280;33867;50.314;7.802;2022-08-07T04:39:27;101239.84;;;10.46;nan
48089;BME280;33867;50.314;7.802;2022-08-07T04:42:50;101243.88;;;10.51;nan
48089;BME280;33867;50.314;7.802;2022-08-07T04:49:45;101246.44;;;10.53;nan
48089;BME280;33867;50.314;7.802;2022-08-07T05:04:21;101248.41;;;10.51;nan
48089;BME280;33867;50.314;7.802;2022-08-07T05:07:49;101256.13;;;10.56;nan
48089;BME280;33867;50.314;7.802;2022-08-07T05:11:25;101250.38;;;10.60;nan
48089;BME280;33867;50.314;7.802;2022-08-07T05:14:47;101256.25;;;10.65;nan
48089;BME280;33867;50.314;7.802;2022-08-07T05:18:31;101252.59;;;10.66;nan
48089;BME280;33867;50.314;7.802;2022-08-07T05:21:55;101248.78;;;10.58;nan
48089;BME280;33867;50.314;7.802;2022-08-07T05:25:18;101253.06;;;10.71;nan
48089;BME280;33867;50.314;7.802;2022-08-07T05:28:40;101260.41;;;10.69;nan
48089;BME280;33867;50.314;7.802;2022-08-07T05:32:05;101264.56;;;10.73;nan
48089;BME280;33867;50.314;7.802;2022-08-07T05:35:26;101265.81;;;10.69;nan
48089;BME280;33867;50.314;7.802;2022-08-07T05:38:46;101261.63;;;10.76;nan
48089;BME280;33867;50.314;7.802;2022-08-07T05:42:06;101275.09;;;10.76;nan
48089;BME280;33867;50.314;7.802;2022-08-07T05:45:28;101271.81;;;10.84;nan
48089;BME280;33867;50.314;7.802;2022-08-07T05:48:52;101264.44;;;10.97;nan
48089;BME280;33867;50.314;7.802;2022-08-07T05:52:11;101265.69;;;10.93;nan
48089;BME280;33867;50.314;7.802;2022-08-07T05:55:34;101267.38;;;10.94;nan
48089;BME280;33867;50.314;7.802;2022-08-07T05:58:55;101275.09;;;10.76;nan
48089;BME280;33867;50.314;7.802;2022-08-07T06:02:18;101270.81;;;10.96;nan
48089;BME280;33867;50.314;7.802;2022-08-07T06:05:39;101264.03;;;11.24;nan
48089;BME280;33867;50.314;7.802;2022-08-07T06:09:01;101276.59;;;11.89;nan
48089;BME280;33867;50.314;7.802;2022-08-07T06:12:21;101263.59;;;12.67;nan
48089;BME280;33867;50.314;7.802;2022-08-07T06:15:41;101270.59;;;13.40;nan
48089;BME280;33867;50.314;7.802;2022-08-07T06:19:02;101271.28;;;14.19;nan
48089;BME280;33867;50.314;7.802;2022-08-07T06:22:24;101273.81;;;14.97;nan
48089;BME280;33867;50.314;7.802;2022-08-07T06:25:50;101264.84;;;15.69;nan
48089;BME280;33867;50.314;7.802;2022-08-07T06:29:10;101267.63;;;16.38;nan
48089;BME280;33867;50.314;7.802;2022-08-07T06:32:29;101260.88;;;17.03;nan
48089;BME280;33867;50.314;7.802;2022-08-07T06:35:49;101248.31;;;17.60;nan
48089;BME280;33867;50.314;7.802;2022-08-07T06:39:08;101247.03;;;18.05;nan
48089;BME280;33867;50.314;7.802;2022-08-07T06:42:32;101238.16;;;18.27;nan
48089;BME280;33867;50.314;7.802;2022-08-07T06:46:15;101242.91;;;18.41;nan
48089;BME280;33867;50.314;7.802;2022-08-07T06:49:35;101228.72;;;19.10;nan
48089;BME280;33867;50.314;7.802;2022-08-07T06:52:58;101225.31;;;19.70;nan
48089;BME280;33867;50.314;7.802;2022-08-07T06:56:23;101220.28;;;20.42;nan
48089;BME280;33867;50.314;7.802;2022-08-07T07:00:03;101211.00;;;21.02;nan
48089;BME280;33867;50.314;7.802;2022-08-07T07:03:24;101216.38;;;21.61;nan
48089;BME280;33867;50.314;7.802;2022-08-07T07:06:44;101219.38;;;21.87;nan
48089;BME280;33867;50.314;7.802;2022-08-07T07:10:03;101213.97;;;22.43;nan
48089;BME280;33867;50.314;7.802;2022-08-07T07:13:30;101214.75;;;23.00;nan
48089;BME280;33867;50.314;7.802;2022-08-07T07:16:50;101211.91;;;23.28;nan
48089;BME280;33867;50.314;7.802;2022-08-07T07:20:16;101198.41;;;23.40;nan
48089;BME280;33867;50.314;7.802;2022-08-07T07:23:37;101197.44;;;23.67;nan
48089;BME280;33867;50.314;7.802;2022-08-07T07:26:57;101204.78;;;23.47;nan
48089;BME280;33867;50.314;7.802;2022-08-07T07:30:27;101196.41;;;23.81;nan
48089;BME280;33867;50.314;7.802;2022-08-07T07:33:51;101203.25;;;22.83;nan
48089;BME280;33867;50.314;7.802;2022-08-07T07:37:12;101195.34;;;24.29;nan
48089;BME280;33867;50.314;7.802;2022-08-07T07:40:32;101183.56;;;24.93;nan
48089;BME280;33867;50.314;7.802;2022-08-07T07:43:52;101179.63;;;25.27;nan
48089;BME280;33867;50.314;7.802;2022-08-07T07:47:13;101184.78;;;25.86;nan
48089;BME280;33867;50.314;7.802;2022-08-07T07:50:33;101188.47;;;25.74;nan
48089;BME280;33867;50.314;7.802;2022-08-07T07:53:56;101178.91;;;25.76;nan
48089;BME280;33867;50.314;7.802;2022-08-07T07:57:19;101178.69;;;26.03;nan
48089;BME280;33867;50.314;7.802;2022-08-07T08:00:42;101170.06;;;26.61;nan
48089;BME280;33867;50.314;7.802;2022-08-07T08:04:04;101168.94;;;26.25;nan
48089;BME280;33867;50.314;7.802;2022-08-07T08:07:24;101158.66;;;26.57;nan
48089;BME280;33867;50.314;7.802;2022-08-07T08:10:44;101155.28;;;26.92;nan
48089;BME280;33867;50.314;7.802;2022-08-07T08:14:04;101150.94;;;26.96;nan
48089;BME280;33867;50.314;7.802;2022-08-07T08:17:24;101151.19;;;27.13;nan
48089;BME280;33867;50.314;7.802;2022-08-07T08:20:45;101148.94;;;28.40;nan
48089;BME280;33867;50.314;7.802;2022-08-07T08:24:50;101142.19;;;29.11;nan
48089;BME280;33867;50.314;7.802;2022-08-07T08:28:29;101141.22;;;27.83;nan
48089;BME280;33867;50.314;7.802;2022-08-07T08:31:49;101133.97;;;27.82;nan
48089;BME280;33867;50.314;7.802;2022-08-07T08:35:23;101139.31;;;27.54;nan
48089;BME280;33867;50.314;7.802;2022-08-07T08:38:44;101134.63;;;29.06;nan
48089;BME280;33867;50.314;7.802;2022-08-07T08:45:54;101123.66;;;29.57;nan
48089;BME280;33867;50.314;7.802;2022-08-07T08:49:25;101118.38;;;28.35;nan
48089;BME280;33867;50.314;7.802;2022-08-07T08:52:52;101116.97;;;29.12;nan
48089;BME280;33867;50.314;7.802;2022-08-07T08:59:58;101108.59;;;30.03;nan
48089;BME280;33867;50.314;7.802;2022-08-07T09:04:05;101106.50;;;29.60;nan
48089;BME280;33867;50.314;7.802;2022-08-07T09:07:37;101107.63;;;28.26;nan
48089;BME280;33867;50.314;7.802;2022-08-07T09:11:18;101098.13;;;28.11;nan
48089;BME280;33867;50.314;7.802;2022-08-07T09:22:13;101092.78;;;29.08;nan
48089;BME280;33867;50.314;7.802;2022-08-07T09:25:51;101085.31;;;29.70;nan
48089;BME280;33867;50.314;7.802;2022-08-07T09:29:28;101088.63;;;28.94;nan
48089;BME280;33867;50.314;7.802;2022-08-07T09:36:45;101081.34;;;29.83;nan
48089;BME280;33867;50.314;7.802;2022-08-07T09:44:25;101064.22;;;30.25;nan
48089;BME280;33867;50.314;7.802;2022-08-07T09:48:12;101069.47;;;29.71;nan
48089;BME280;33867;50.314;7.802;2022-08-07T09:55:14;101066.91;;;31.29;nan
48089;BME280;33867;50.314;7.802;2022-08-07T09:59:00;101049.28;;;32.30;nan
48089;BME280;33867;50.314;7.802;2022-08-07T10:06:25;101033.13;;;33.71;nan
48089;BME280;33867;50.314;7.802;2022-08-07T10:17:50;101020.00;;;29.01;nan
48089;BME280;33867;50.314;7.802;2022-08-07T10:25:02;101006.72;;;29.87;nan
48089;BME280;33867;50.314;7.802;2022-08-07T10:43:21;100992.09;;;32.27;nan
48089;BME280;33867;50.314;7.802;2022-08-07T10:46:54;100983.97;;;32.83;nan
48089;BME280;33867;50.314;7.802;2022-08-07T10:50:25;100987.38;;;33.47;nan
48089;BME280;33867;50.314;7.802;2022-08-07T10:53:56;100987.50;;;34.76;nan
48089;BME280;33867;50.314;7.802;2022-08-07T11:04:54;100969.88;;;37.71;nan
48089;BME280;33867;50.314;7.802;2022-08-07T11:08:44;100969.16;;;38.34;nan
48089;BME280;33867;50.314;7.802;2022-08-07T11:12:15;100959.06;;;38.06;nan
48089;BME280;33867;50.314;7.802;2022-08-07T11:15:39;100958.28;;;36.13;nan
48089;BME280;33867;50.314;7.802;2022-08-07T11:22:40;100954.75;;;34.81;nan
48089;BME280;33867;50.314;7.802;2022-08-07T11:29:44;100940.50;;;36.79;nan
48089;BME280;33867;50.314;7.802;2022-08-07T11:33:33;100935.06;;;37.07;nan
48089;BME280;33867;50.314;7.802;2022-08-07T11:41:18;100920.56;;;36.81;nan
48089;BME280;33867;50.314;7.802;2022-08-07T11:44:58;100921.22;;;35.44;nan
48089;BME280;33867;50.314;7.802;2022-08-07T11:59:46;100905.38;;;34.12;nan
48089;BME280;33867;50.314;7.802;2022-08-07T12:07:13;100905.56;;;32.80;nan
48089;BME280;33867;50.314;7.802;2022-08-07T12:10:50;100897.28;;;31.50;nan
48089;BME280;33867;50.314;7.802;2022-08-07T12:14:18;100902.13;;;35.17;nan
48089;BME280;33867;50.314;7.802;2022-08-07T12:17:42;100900.25;;;36.14;nan
48089;BME280;33867;50.314;7.802;2022-08-07T12:28:44;100890.03;;;36.60;nan
48089;BME280;33867;50.314;7.802;2022-08-07T12:32:13;100888.75;;;36.72;nan
48089;BME280;33867;50.314;7.802;2022-08-07T12:35:35;100886.81;;;36.29;nan
48089;BME280;33867;50.314;7.802;2022-08-07T12:38:55;100885.69;;;33.58;nan
48089;BME280;33867;50.314;7.802;2022-08-07T12:42:20;100886.63;;;32.82;nan
48089;BME280;33867;50.314;7.802;2022-08-07T12:45:53;100877.47;;;34.02;nan
48089;BME280;33867;50.314;7.802;2022-08-07T12:49:32;100881.88;;;32.82;nan
48089;BME280;33867;50.314;7.802;2022-08-07T12:52:58;100875.91;;;34.74;nan
48089;BME280;33867;50.314;7.802;2022-08-07T12:56:28;100861.88;;;33.81;nan
48089;BME280;33867;50.314;7.802;2022-08-07T12:59:49;100869.72;;;35.40;nan
48089;BME280;33867;50.314;7.802;2022-08-07T13:03:25;100867.19;;;34.37;nan
48089;BME280;33867;50.314;7.802;2022-08-07T13:10:32;100856.47;;;34.05;nan
48089;BME280;33867;50.314;7.802;2022-08-07T13:14:16;100852.56;;;33.21;nan
48089;BME280;33867;50.314;7.802;2022-08-07T13:17:50;100851.16;;;34.57;nan
48089;BME280;33867;50.314;7.802;2022-08-07T13:21:30;100835.09;;;36.41;nan
48089;BME280;33867;50.314;7.802;2022-08-07T13:25:09;100853.41;;;33.16;nan
48089;BME280;33867;50.314;7.802;2022-08-07T13:28:44;100849.94;;;33.60;nan
48089;BME280;33867;50.314;7.802;2022-08-07T13:32:14;100856.59;;;33.79;nan
48089;BME280;33867;50.314;7.802;2022-08-07T13:35:43;100846.09;;;35.23;nan
48089;BME280;33867;50.314;7.802;2022-08-07T13:42:48;100845.72;;;34.71;nan
48089;BME280;33867;50.314;7.802;2022-08-07T13:46:10;100841.66;;;34.53;nan
48089;BME280;33867;50.314;7.802;2022-08-07T13:49:37;100828.66;;;34.28;nan
48089;BME280;33867;50.314;7.802;2022-08-07T13:52:58;100823.84;;;33.00;nan
48089;BME280;33867;50.314;7.802;2022-08-07T13:56:21;100835.84;;;33.05;nan
48089;BME280;33867;50.314;7.802;2022-08-07T13:59:48;100828.22;;;34.11;nan
48089;BME280;33867;50.314;7.802;2022-08-07T14:03:11;100829.47;;;33.80;nan
48089;BME280;33867;50.314;7.802;2022-08-07T14:06:31;100817.03;;;35.19;nan
48089;BME280;33867;50.314;7.802;2022-08-07T14:09:56;100822.16;;;35.59;nan
48089;BME280;33867;50.314;7.802;2022-08-07T14:13:25;100800.56;;;36.21;nan
48089;BME280;33867;50.314;7.802;2022-08-07T14:16:47;100803.66;;;35.10;nan
48089;BME280;33867;50.314;7.802;2022-08-07T14:20:18;100797.22;;;35.82;nan
48089;BME280;33867;50.314;7.802;2022-08-07T14:23:45;100800.34;;;35.08;nan
48089;BME280;33867;50.314;7.802;2022-08-07T14:27:07;100802.38;;;33.90;nan
48089;BME280;33867;50.314;7.802;2022-08-07T14:30:28;100798.91;;;35.35;nan
48089;BME280;33867;50.314;7.802;2022-08-07T14:33:50;100806.81;;;32.91;nan
48089;BME280;33867;50.314;7.802;2022-08-07T14:37:11;100788.44;;;32.80;nan
48089;BME280;33867;50.314;7.802;2022-08-07T14:40:33;100779.41;;;34.72;nan
48089;BME280;33867;50.314;7.802;2022-08-07T14:43:57;100779.47;;;35.67;nan
48089;BME280;33867;50.314;7.802;2022-08-07T14:47:18;100776.69;;;33.78;nan
48089;BME280;33867;50.314;7.802;2022-08-07T14:50:55;100783.78;;;30.40;nan
48089;BME280;33867;50.314;7.802;2022-08-07T14:54:17;100769.63;;;29.61;nan
48089;BME280;33867;50.314;7.802;2022-08-07T14:57:41;100780.44;;;29.84;nan
48089;BME280;33867;50.314;7.802;2022-08-07T15:01:01;100779.13;;;31.25;nan
48089;BME280;33867;50.314;7.802;2022-08-07T15:04:22;100773.88;;;32.07;nan
48089;BME280;33867;50.314;7.802;2022-08-07T15:07:43;100771.94;;;32.02;nan
48089;BME280;33867;50.314;7.802;2022-08-07T15:11:09;100770.88;;;32.59;nan
48089;BME280;33867;50.314;7.802;2022-08-07T15:14:29;100770.88;;;30.56;nan
48089;BME280;33867;50.314;7.802;2022-08-07T15:17:57;100770.38;;;31.54;nan
48089;BME280;33867;50.314;7.802;2022-08-07T15:21:24;100760.22;;;30.80;nan
48089;BME280;33867;50.314;7.802;2022-08-07T15:24:48;100766.38;;;29.69;nan
48089;BME280;33867;50.314;7.802;2022-08-07T15:28:11;100762.03;;;30.64;nan
48089;BME280;33867;50.314;7.802;2022-08-07T15:31:38;100761.97;;;30.96;nan
48089;BME280;33867;50.314;7.802;2022-08-07T15:35:00;100749.19;;;31.00;nan
48089;BME280;33867;50.314;7.802;2022-08-07T15:38:27;100745.41;;;31.17;nan
48089;BME280;33867;50.314;7.802;2022-08-07T15:42:00;100749.31;;;30.73;nan
48089;BME280;33867;50.314;7.802;2022-08-07T15:48:49;100740.25;;;30.88;nan
48089;BME280;33867;50.314;7.802;2022-08-07T15:52:23;100739.56;;;30.07;nan
48089;BME280;33867;50.314;7.802;2022-08-07T15:55:46;100734.91;;;30.44;nan
48089;BME280;33867;50.314;7.802;2022-08-07T15:59:12;100730.88;;;30.25;nan
48089;BME280;33867;50.314;7.802;2022-08-07T16:02:49;100731.66;;;30.20;nan
48089;BME280;33867;50.314;7.802;2022-08-07T16:06:41;100729.81;;;29.50;nan
48089;BME280;33867;50.314;7.802;2022-08-07T16:10:15;100733.72;;;28.55;nan
48089;BME280;33867;50.314;7.802;2022-08-07T16:14:04;100729.59;;;28.41;nan
48089;BME280;33867;50.314;7.802;2022-08-07T16:21:05;100727.28;;;28.04;nan
48089;BME280;33867;50.314;7.802;2022-08-07T16:24:48;100725.47;;;28.10;nan
48089;BME280;33867;50.314;7.802;2022-08-07T16:32:09;100728.34;;;28.48;nan
48089;BME280;33867;50.314;7.802;2022-08-07T16:35:33;100726.16;;;28.50;nan
48089;BME280;33867;50.314;7.802;2022-08-07T16:39:14;100722.63;;;28.55;nan
48089;BME280;33867;50.314;7.802;2022-08-07T16:53:35;100725.72;;;27.51;nan
48089;BME280;33867;50.314;7.802;2022-08-07T16:57:28;100722.00;;;27.05;nan
48089;BME280;33867;50.314;7.802;2022-08-07T17:01:08;100715.72;;;26.87;nan
48089;BME280;33867;50.314;7.802;2022-08-07T17:04:34;100714.19;;;26.79;nan
48089;BME280;33867;50.314;7.802;2022-08-07T17:07:58;100711.41;;;27.14;nan
48089;BME280;33867;50.314;7.802;2022-08-07T17:11:27;100718.63;;;26.80;nan
48089;BME280;33867;50.314;7.802;2022-08-07T17:15:17;100714.44;;;26.42;nan
48089;BME280;33867;50.314;7.802;2022-08-07T17:22:15;100714.31;;;26.72;nan
48089;BME280;33867;50.314;7.802;2022-08-07T17:25:55;100716.09;;;26.90;nan
48089;BME280;33867;50.314;7.802;2022-08-07T17:33:16;100720.91;;;26.71;nan
48089;BME280;33867;50.314;7.802;2022-08-07T17:36:41;100718.41;;;26.46;nan
48089;BME280;33867;50.314;7.802;2022-08-07T17:43:30;100726.38;;;26.24;nan
48089;BME280;33867;50.314;7.802;2022-08-07T17:47:02;100713.69;;;26.35;nan
48089;BME280;33867;50.314;7.802;2022-08-07T17:50:50;100720.22;;;26.41;nan
48089;BME280;33867;50.314;7.802;2022-08-07T17:54:27;100709.44;;;26.09;nan
48089;BME280;33867;50.314;7.802;2022-08-07T17:58:02;100716.31;;;25.77;nan
48089;BME280;33867;50.314;7.802;2022-08-07T18:01:25;100718.88;;;25.60;nan
48089;BME280;33867;50.314;7.802;2022-08-07T18:04:51;100726.38;;;25.53;nan
48089;BME280;33867;50.314;7.802;2022-08-07T18:08:16;100724.03;;;25.68;nan
48089;BME280;33867;50.314;7.802;2022-08-07T18:11:43;100722.66;;;25.47;nan
48089;BME280;33867;50.314;7.802;2022-08-07T18:19:46;100735.06;;;25.20;nan
48089;BME280;33867;50.314;7.802;2022-08-07T18:23:22;100736.53;;;25.22;nan
48089;BME280;33867;50.314;7.802;2022-08-07T18:31:06;100741.78;;;24.44;nan
48089;BME280;33867;50.314;7.802;2022-08-07T18:34:44;100743.19;;;24.21;nan
48089;BME280;33867;50.314;7.802;2022-08-07T18:38:30;100759.19;;;24.06;nan
48089;BME280;33867;50.314;7.802;2022-08-07T18:42:15;100756.16;;;24.14;nan
48089;BME280;33867;50.314;7.802;2022-08-07T18:45:46;100759.22;;;24.00;nan
48089;BME280;33867;50.314;7.802;2022-08-07T18:49:15;100760.59;;;23.84;nan
48089;BME280;33867;50.314;7.802;2022-08-07T19:07:16;100796.47;;;21.72;nan
48089;BME280;33867;50.314;7.802;2022-08-07T19:10:44;100804.97;;;21.91;nan
48089;BME280;33867;50.314;7.802;2022-08-07T19:14:11;100801.22;;;21.50;nan
48089;BME280;33867;50.314;7.802;2022-08-07T19:17:58;100802.34;;;21.21;nan
48089;BME280;33867;50.314;7.802;2022-08-07T19:21:28;100817.94;;;21.62;nan
48089;BME280;33867;50.314;7.802;2022-08-07T19:24:50;100821.03;;;21.46;nan
48089;BME280;33867;50.314;7.802;2022-08-07T19:28:14;100821.91;;;21.53;nan
48089;BME280;33867;50.314;7.802;2022-08-07T19:31:43;100823.78;;;21.18;nan
48089;BME280;33867;50.314;7.802;2022-08-07T19:35:18;100831.13;;;20.83;nan
48089;BME280;33867;50.314;7.802;2022-08-07T19:38:39;100835.09;;;20.52;nan
48089;BME280;33867;50.314;7.802;2022-08-07T19:42:07;100846.03;;;20.52;nan
48089;BME280;33867;50.314;7.802;2022-08-07T19:45:29;100844.56;;;20.78;nan
48089;BME280;33867;50.314;7.802;2022-08-07T19:48:58;100853.19;;;20.75;nan
48089;BME280;33867;50.314;7.802;2022-08-07T19:52:25;100860.34;;;20.76;nan
48089;BME280;33867;50.314;7.802;2022-08-07T19:55:45;100862.56;;;20.65;nan
48089;BME280;33867;50.314;7.802;2022-08-07T19:59:30;100863.63;;;20.43;nan
48089;BME280;33867;50.314;7.802;2022-08-07T20:02:54;100874.16;;;20.46;nan
48089;BME280;33867;50.314;7.802;2022-08-07T20:06:14;100867.66;;;20.26;nan
48089;BME280;33867;50.314;7.802;2022-08-07T20:09:47;100870.50;;;20.18;nan
48089;BME280;33867;50.314;7.802;2022-08-07T20:13:22;100878.69;;;20.18;nan
48089;BME280;33867;50.314;7.802;2022-08-07T20:16:43;100872.88;;;20.06;nan
48089;BME280;33867;50.314;7.802;2022-08-07T20:20:09;100871.94;;;19.99;nan
48089;BME280;33867;50.314;7.802;2022-08-07T20:23:29;100873.88;;;19.83;nan
48089;BME280;33867;50.314;7.802;2022-08-07T20:26:50;100879.63;;;19.74;nan
48089;BME280;33867;50.314;7.802;2022-08-07T20:30:10;100875.50;;;19.63;nan
48089;BME280;33867;50.314;7.802;2022-08-07T20:33:30;100879.34;;;19.54;nan
48089;BME280;33867;50.314;7.802;2022-08-07T20:36:50;100876.16;;;19.36;nan
48089;BME280;33867;50.314;7.802;2022-08-07T20:40:14;100889.03;;;19.27;nan
48089;BME280;33867;50.314;7.802;2022-08-07T20:43:34;100886.97;;;19.29;nan
48089;BME280;33867;50.314;7.802;2022-08-07T20:46:55;100885.06;;;19.15;nan
48089;BME280;33867;50.314;7.802;2022-08-07T20:50:18;100896.09;;;19.07;nan
48089;BME280;33867;50.314;7.802;2022-08-07T20:53:38;100887.59;;;19.02;nan
48089;BME280;33867;50.314;7.802;2022-08-07T20:57:03;100892.06;;;18.80;nan
48089;BME280;33867;50.314;7.802;2022-08-07T21:00:30;100895.63;;;18.80;nan
48089;BME280;33867;50.314;7.802;2022-08-07T21:03:53;100897.69;;;18.55;nan
48089;BME280;33867;50.314;7.802;2022-08-07T21:07:14;100901.25;;;18.56;nan
48089;BME280;33867;50.314;7.802;2022-08-07T21:10:35;100909.34;;;18.49;nan
48089;BME280;33867;50.314;7.802;2022-08-07T21:13:58;100922.84;;;18.42;nan
48089;BME280;33867;50.314;7.802;2022-08-07T21:17:23;100929.25;;;18.27;nan
48089;BME280;33867;50.314;7.802;2022-08-07T21:20:43;100934.94;;;18.17;nan